createdAt,value
2019-05-26T00:01:05.804Z,3.20
2019-05-26T00:03:36.208Z,3.25
2019-05-26T00:06:06.671Z,3.00
2019-05-26T00:08:37.062Z,3.40
2019-05-26T00:11:07.436Z,3.75
2019-05-26T00:13:37.816Z,3.37
2019-05-26T00:16:08.198Z,3.40
2019-05-26T00:18:38.616Z,3.62
2019-05-26T00:21:09.018Z,3.87
2019-05-26T00:23:39.399Z,3.98
2019-05-26T00:26:09.793Z,3.70
2019-05-26T00:28:40.182Z,4.55
2019-05-26T00:31:10.574Z,3.95
2019-05-26T00:33:40.958Z,3.83
2019-05-26T00:36:11.351Z,3.62
2019-05-26T00:38:41.793Z,3.87
2019-05-26T00:41:12.194Z,4.72
2019-05-26T00:43:42.572Z,4.83
2019-05-26T00:46:12.966Z,5.28
2019-05-26T00:48:43.360Z,4.60
2019-05-26T00:51:13.806Z,5.58
2019-05-26T00:53:44.215Z,5.47
2019-05-26T00:56:15.855Z,5.75
2019-05-26T00:58:46.253Z,6.33
2019-05-26T01:01:16.698Z,5.97
2019-05-26T01:03:47.090Z,5.72
2019-05-26T01:06:17.504Z,5.72
2019-05-26T01:08:49.065Z,5.80
2019-05-26T01:11:20.529Z,6.17
2019-05-26T01:13:51.021Z,6.20
2019-05-26T01:16:21.412Z,5.37
2019-05-26T01:18:51.807Z,6.20
2019-05-26T01:21:22.527Z,5.40
2019-05-26T01:23:52.913Z,6.55
2019-05-26T01:26:23.297Z,6.25
2019-05-26T01:28:53.822Z,6.25
2019-05-26T01:31:24.207Z,6.58
2019-05-26T01:33:54.597Z,6.95
2019-05-26T01:36:25.156Z,7.42
2019-05-26T01:38:55.968Z,8.13
2019-05-26T01:41:27.335Z,8.50
2019-05-26T01:43:57.731Z,7.92
2019-05-26T01:46:28.116Z,10.03
2019-05-26T01:48:58.516Z,11.20
2019-05-26T01:51:28.928Z,12.03
2019-05-26T01:53:59.330Z,13.43
2019-05-26T01:56:29.731Z,14.05
2019-05-26T01:59:00.122Z,15.48
2019-05-26T02:01:30.550Z,14.18
2019-05-26T02:04:00.931Z,14.65
2019-05-26T02:06:31.343Z,13.72
2019-05-26T02:09:03.122Z,14.98
2019-05-26T02:11:35.139Z,16.42
2019-05-26T02:14:06.444Z,14.75
2019-05-26T02:16:36.836Z,14.98
2019-05-26T02:19:07.268Z,14.98
2019-05-26T02:21:37.646Z,15.80
2019-05-26T02:24:08.028Z,14.78
2019-05-26T02:26:38.415Z,14.75
2019-05-26T02:29:08.821Z,14.93
2019-05-26T02:31:39.216Z,14.00
2019-05-26T02:34:09.621Z,14.55
2019-05-26T02:36:40.024Z,16.60
2019-05-26T02:39:10.484Z,17.42
2019-05-26T02:41:40.879Z,18.95
2019-05-26T02:44:11.286Z,18.15
2019-05-26T02:46:41.671Z,19.40
2019-05-26T02:49:12.065Z,19.60
2019-05-26T02:51:42.486Z,20.95
2019-05-26T02:54:12.869Z,21.82
2019-05-26T02:56:43.362Z,20.77
2019-05-26T02:59:13.734Z,23.55
2019-05-26T03:02:01.338Z,23.30
2019-05-26T03:04:16.408Z,23.65
2019-05-26T03:06:49.605Z,24.20
2019-05-26T03:09:23.868Z,24.85
2019-05-26T03:11:56.618Z,25.08
2019-05-26T03:14:29.803Z,22.75
2019-05-26T03:17:02.686Z,23.83
2019-05-26T03:19:35.554Z,23.60
2019-05-26T03:22:06.226Z,23.35
2019-05-26T03:24:40.965Z,23.27
2019-05-26T03:27:11.371Z,24.90
2019-05-26T03:29:41.752Z,24.72
2019-05-26T03:32:12.497Z,25.70
2019-05-26T03:34:42.879Z,24.95
2019-05-26T03:37:13.287Z,25.48
2019-05-26T03:39:46.178Z,25.68
2019-05-26T03:42:15.791Z,25.72
2019-05-26T03:44:46.171Z,23.98
2019-05-26T03:47:17.162Z,23.98
2019-05-26T03:49:48.817Z,25.85
2019-05-26T03:52:19.305Z,25.52
2019-05-26T03:54:49.701Z,25.97
2019-05-26T03:57:20.107Z,25.77
2019-05-26T03:59:50.485Z,25.00
2019-05-26T04:02:20.897Z,25.37
2019-05-26T04:04:51.280Z,27.75
2019-05-26T04:07:21.681Z,28.10
2019-05-26T04:10:03.942Z,25.97
2019-05-26T04:12:24.138Z,26.37
2019-05-26T04:14:54.540Z,26.10
2019-05-26T04:17:24.945Z,24.75
2019-05-26T04:19:55.328Z,23.20
2019-05-26T04:22:25.734Z,23.40
2019-05-26T04:24:56.150Z,24.70
2019-05-26T04:27:26.611Z,25.27
2019-05-26T04:29:57.008Z,24.47
2019-05-26T04:32:27.394Z,23.60
2019-05-26T04:34:57.799Z,22.87
2019-05-26T04:37:28.201Z,23.95
2019-05-26T04:39:58.880Z,22.70
2019-05-26T04:42:29.336Z,22.45
2019-05-26T04:44:59.963Z,22.90
2019-05-26T04:47:30.344Z,23.80
2019-05-26T04:50:00.745Z,22.50
2019-05-26T04:52:31.151Z,30.08
2019-05-26T04:55:01.543Z,22.70
2019-05-26T04:57:33.592Z,22.73
2019-05-26T05:00:08.878Z,21.75
2019-05-26T05:02:39.295Z,21.90
2019-05-26T05:05:09.878Z,22.30
2019-05-26T05:07:40.556Z,20.48
2019-05-26T05:10:12.438Z,21.95
2019-05-26T05:12:42.838Z,21.68
2019-05-26T05:15:13.436Z,21.02
2019-05-26T05:17:43.829Z,21.37
2019-05-26T05:20:15.254Z,21.27
2019-05-26T05:22:45.756Z,21.35
2019-05-26T05:25:16.148Z,20.90
2019-05-26T05:27:47.497Z,20.85
2019-05-26T05:30:18.404Z,20.77
2019-05-26T05:32:48.792Z,18.95
2019-05-26T05:35:20.409Z,20.57
2019-05-26T05:37:50.783Z,19.85
2019-05-26T05:40:21.358Z,19.82
2019-05-26T05:42:51.702Z,20.82
2019-05-26T05:45:23.148Z,19.67
2019-05-26T05:47:53.536Z,20.65
2019-05-26T05:50:23.962Z,19.50
2019-05-26T05:52:54.408Z,20.97
2019-05-26T05:55:24.786Z,19.52
2019-05-26T05:57:55.184Z,19.37
2019-05-26T06:00:26.217Z,18.12
2019-05-26T06:02:56.605Z,19.02
2019-05-26T06:05:26.997Z,19.70
2019-05-26T06:07:57.685Z,18.25
2019-05-26T06:10:28.069Z,18.98
2019-05-26T06:12:58.726Z,19.75
2019-05-26T06:15:29.168Z,18.95
2019-05-26T06:17:59.513Z,18.87
2019-05-26T06:20:30.079Z,18.45
2019-05-26T06:23:00.473Z,18.05
2019-05-26T06:25:30.880Z,17.95
2019-05-26T06:28:01.494Z,19.87
2019-05-26T06:30:32.090Z,18.32
2019-05-26T06:33:02.498Z,16.62
2019-05-26T06:35:33.841Z,17.10
2019-05-26T06:38:04.347Z,17.87
2019-05-26T06:40:34.734Z,16.82
2019-05-26T06:43:05.302Z,16.93
2019-05-26T06:45:35.723Z,17.07
2019-05-26T06:48:06.602Z,17.30
2019-05-26T06:50:37.002Z,17.12
2019-05-26T06:53:07.394Z,16.17
2019-05-26T06:55:37.808Z,15.18
2019-05-26T06:58:08.261Z,15.25
2019-05-26T07:00:38.735Z,15.63
2019-05-26T07:03:09.116Z,14.80
2019-05-26T07:05:39.545Z,15.28
2019-05-26T07:08:09.917Z,14.73
2019-05-26T07:10:40.341Z,14.95
2019-05-26T07:13:10.703Z,14.75
2019-05-26T07:15:41.169Z,13.85
2019-05-26T07:18:11.584Z,14.75
2019-05-26T07:20:42.585Z,13.93
2019-05-26T07:23:14.003Z,14.35
2019-05-26T07:25:44.410Z,12.47
2019-05-26T07:28:14.787Z,13.38
2019-05-26T07:30:45.388Z,12.78
2019-05-26T07:33:15.780Z,12.80
2019-05-26T07:35:49.693Z,12.70
2019-05-26T07:38:18.280Z,11.88
2019-05-26T07:40:48.691Z,11.85
2019-05-26T07:43:19.094Z,11.88
2019-05-26T07:45:49.555Z,11.63
2019-05-26T07:48:19.934Z,12.80
2019-05-26T07:50:50.342Z,12.82
2019-05-26T07:53:20.719Z,12.35
2019-05-26T07:55:51.105Z,11.60
2019-05-26T07:58:21.492Z,10.65
2019-05-26T08:00:51.949Z,11.18
2019-05-26T08:03:22.350Z,11.57
2019-05-26T08:05:52.737Z,11.65
2019-05-26T08:08:23.131Z,11.85
2019-05-26T08:10:56.253Z,11.50
2019-05-26T08:13:26.634Z,11.50
2019-05-26T08:15:57.490Z,11.33
2019-05-26T08:18:27.949Z,11.28
2019-05-26T08:20:58.360Z,11.73
2019-05-26T08:23:29.895Z,11.50
2019-05-26T08:26:01.369Z,11.90
2019-05-26T08:28:31.749Z,11.45
2019-05-26T08:31:02.385Z,11.93
2019-05-26T08:33:32.790Z,11.22
2019-05-26T08:36:03.171Z,11.25
2019-05-26T08:38:33.659Z,12.18
2019-05-26T08:41:05.006Z,10.98
2019-05-26T08:43:35.392Z,11.05
2019-05-26T08:46:06.873Z,11.15
2019-05-26T08:48:37.253Z,11.43
2019-05-26T08:51:07.656Z,12.18
2019-05-26T08:53:38.047Z,11.30
2019-05-26T08:56:08.434Z,10.88
2019-05-26T08:58:38.845Z,10.53
2019-05-26T09:01:09.301Z,11.63
2019-05-26T09:03:40.074Z,11.03
2019-05-26T09:06:10.466Z,12.33
2019-05-26T09:08:40.872Z,10.55
2019-05-26T09:11:11.306Z,11.57
2019-05-26T09:13:41.707Z,10.72
2019-05-26T09:16:12.094Z,11.15
2019-05-26T09:18:42.509Z,10.23
2019-05-26T09:21:12.891Z,10.80
2019-05-26T09:23:43.374Z,10.55
2019-05-26T09:26:13.784Z,10.85
2019-05-26T09:28:44.195Z,12.40
2019-05-26T09:31:14.585Z,10.48
2019-05-26T09:33:44.986Z,10.03
2019-05-26T09:36:15.391Z,10.03
2019-05-26T09:38:45.785Z,10.55
2019-05-26T09:41:16.160Z,9.30
2019-05-26T09:43:46.635Z,10.80
2019-05-26T09:46:17.025Z,9.75
2019-05-26T09:48:47.443Z,10.03
2019-05-26T09:51:18.844Z,9.93
2019-05-26T09:54:00.809Z,10.08
2019-05-26T09:56:21.352Z,11.15
2019-05-26T09:58:51.746Z,12.07
2019-05-26T10:01:22.132Z,9.68
2019-05-26T10:03:53.502Z,9.30
2019-05-26T10:06:23.876Z,9.70
2019-05-26T10:08:54.284Z,10.60
2019-05-26T10:11:24.740Z,10.40
2019-05-26T10:13:55.136Z,11.50
2019-05-26T10:16:25.558Z,10.90
2019-05-26T10:18:55.949Z,12.63
2019-05-26T10:21:26.415Z,10.90
2019-05-26T10:23:56.838Z,11.70
2019-05-26T10:26:27.220Z,11.95
2019-05-26T10:29:00.695Z,10.68
2019-05-26T10:31:30.804Z,10.98
2019-05-26T10:34:01.237Z,10.55
2019-05-26T10:36:31.604Z,10.35
2019-05-26T10:39:02.019Z,10.25
2019-05-26T10:41:32.584Z,10.43
2019-05-26T10:44:03.048Z,9.93
2019-05-26T10:46:33.433Z,8.93
2019-05-26T10:49:05.182Z,8.13
2019-05-26T10:51:35.852Z,7.30
2019-05-26T10:54:06.308Z,4.42
2019-05-26T10:56:36.704Z,3.95
2019-05-26T10:59:07.145Z,3.72
2019-05-26T11:01:37.532Z,3.83
2019-05-26T11:04:08.264Z,3.20
2019-05-26T11:06:38.714Z,3.30
2019-05-26T11:09:09.556Z,3.08
2019-05-26T11:11:40.015Z,3.08
2019-05-26T11:14:10.395Z,2.75
2019-05-26T11:16:40.802Z,2.40
2019-05-26T11:19:11.175Z,3.10
2019-05-26T11:21:41.569Z,3.17
2019-05-26T11:24:11.987Z,3.60
2019-05-26T11:26:42.398Z,3.67
2019-05-26T11:29:13.258Z,4.12
2019-05-26T11:31:43.660Z,3.90
2019-05-26T11:34:14.034Z,4.03
2019-05-26T11:36:44.500Z,3.45
2019-05-26T11:39:14.888Z,4.22
2019-05-26T11:41:54.420Z,3.83
2019-05-26T11:44:18.539Z,3.55
2019-05-26T11:46:49.888Z,3.40
2019-05-26T11:49:20.264Z,3.50
2019-05-26T11:51:50.700Z,3.77
2019-05-26T11:54:21.059Z,3.52
2019-05-26T11:56:51.438Z,3.72
2019-05-26T11:59:21.808Z,4.15
2019-05-26T12:01:52.179Z,4.17
2019-05-26T12:04:22.583Z,3.58
2019-05-26T12:06:52.974Z,4.12
2019-05-26T12:09:23.370Z,3.52
2019-05-26T12:11:53.766Z,3.85
2019-05-26T12:14:34.498Z,4.05
2019-05-26T12:16:57.233Z,2.87
2019-05-26T12:19:27.627Z,3.30
2019-05-26T12:21:58.003Z,3.40
2019-05-26T12:24:28.401Z,3.60
2019-05-26T12:26:58.795Z,3.35
2019-05-26T12:29:30.164Z,2.40
2019-05-26T12:32:00.565Z,2.47
2019-05-26T12:34:30.966Z,2.55
2019-05-26T12:37:01.343Z,2.25
2019-05-26T12:39:31.750Z,2.52
2019-05-26T12:42:02.124Z,2.27
2019-05-26T12:44:32.546Z,2.58
2019-05-26T12:47:02.921Z,2.50
2019-05-26T12:49:33.327Z,2.55
2019-05-26T12:52:03.964Z,2.27
2019-05-26T12:54:34.371Z,2.67
2019-05-26T12:57:04.952Z,2.08
2019-05-26T12:59:35.351Z,2.55
2019-05-26T13:02:06.345Z,2.55
2019-05-26T13:04:36.754Z,2.40
2019-05-26T13:07:07.207Z,2.27
2019-05-26T13:09:37.605Z,2.10
2019-05-26T13:12:08.022Z,2.62
2019-05-26T13:14:38.467Z,2.80
2019-05-26T13:17:08.987Z,2.08
2019-05-26T13:19:39.397Z,1.95
2019-05-26T13:22:10.767Z,2.20
2019-05-26T13:24:41.322Z,2.20
2019-05-26T13:27:11.756Z,2.42
2019-05-26T13:29:42.186Z,2.10
2019-05-26T13:32:12.558Z,2.20
2019-05-26T13:34:43.006Z,2.02
2019-05-26T13:37:13.372Z,2.37
2019-05-26T13:39:43.767Z,1.95
2019-05-26T13:42:14.150Z,1.70
2019-05-26T13:44:44.557Z,1.65
2019-05-26T13:47:25.657Z,1.82
2019-05-26T13:49:47.107Z,1.82
2019-05-26T13:52:17.483Z,1.37
2019-05-26T13:54:48.951Z,1.20
2019-05-26T13:57:19.331Z,1.40
2019-05-26T13:59:51.749Z,1.45
2019-05-26T14:02:21.793Z,1.70
2019-05-26T14:04:52.479Z,1.50
2019-05-26T14:07:22.855Z,1.12
2019-05-26T14:09:53.242Z,1.12
2019-05-26T14:12:23.692Z,1.07
2019-05-26T14:14:55.894Z,0.85
2019-05-26T14:17:28.489Z,0.72
2019-05-26T14:20:01.405Z,0.70
2019-05-26T14:22:31.789Z,0.70
2019-05-26T14:25:02.202Z,0.70
2019-05-26T14:27:32.569Z,0.90
2019-05-26T14:30:04.203Z,0.72
2019-05-26T14:32:34.587Z,0.50
2019-05-26T14:35:07.027Z,0.75
2019-05-26T14:37:37.406Z,0.60
2019-05-26T14:40:10.113Z,0.40
2019-05-26T14:42:40.494Z,0.50
2019-05-26T14:45:11.215Z,0.42
2019-05-26T14:47:41.600Z,0.60
2019-05-26T14:50:12.925Z,0.60
2019-05-26T14:52:43.335Z,0.50
2019-05-26T14:55:14.516Z,0.40
2019-05-26T14:57:44.918Z,0.42
2019-05-26T15:00:16.925Z,0.33
2019-05-26T15:02:47.309Z,0.30
2019-05-26T15:05:18.515Z,0.50
2019-05-26T15:07:48.894Z,0.42
2019-05-26T15:10:22.490Z,0.42
2019-05-26T15:12:51.522Z,0.50
2019-05-26T15:15:22.130Z,0.60
2019-05-26T15:17:52.523Z,0.55
2019-05-26T15:20:22.923Z,0.80
2019-05-26T15:22:53.306Z,0.57
2019-05-26T15:25:23.695Z,0.80
2019-05-26T15:27:54.084Z,0.72
2019-05-26T15:30:26.125Z,0.62
2019-05-26T15:32:56.581Z,0.90
2019-05-26T15:35:26.969Z,1.00
2019-05-26T15:37:57.336Z,0.90
2019-05-26T15:40:27.738Z,0.88
2019-05-26T15:42:58.117Z,0.90
2019-05-26T15:45:28.599Z,1.12
2019-05-26T15:47:58.975Z,1.15
2019-05-26T15:50:29.366Z,1.22
2019-05-26T15:52:59.742Z,1.52
2019-05-26T15:55:30.150Z,1.47
2019-05-26T15:58:00.510Z,1.75
2019-05-26T16:00:30.907Z,1.80
2019-05-26T16:03:01.299Z,1.50
2019-05-26T16:05:31.691Z,1.57
2019-05-26T16:08:02.077Z,1.45
2019-05-26T16:10:32.478Z,1.22
2019-05-26T16:13:03.073Z,2.08
2019-05-26T16:15:33.480Z,2.05
2019-05-26T16:18:03.934Z,1.75
2019-05-26T16:20:34.335Z,1.85
2019-05-26T16:23:04.850Z,1.77
2019-05-26T16:25:47.769Z,1.82
2019-05-26T16:28:18.152Z,1.50
2019-05-26T16:30:48.768Z,1.57
2019-05-26T16:33:19.132Z,1.90
2019-05-26T16:35:49.521Z,1.75
2019-05-26T16:38:19.893Z,1.60
2019-05-26T16:40:50.284Z,2.62
2019-05-26T16:43:20.672Z,2.47
2019-05-26T16:45:56.337Z,1.98
2019-05-26T16:48:23.131Z,1.87
2019-05-26T16:50:53.731Z,1.65
2019-05-26T16:53:24.082Z,1.80
2019-05-26T16:55:54.471Z,2.10
2019-05-26T16:58:24.915Z,2.15
2019-05-26T17:00:55.329Z,1.67
2019-05-26T17:03:25.703Z,1.77
2019-05-26T17:06:07.622Z,2.00
2019-05-26T17:08:28.263Z,1.92
2019-05-26T17:10:58.687Z,1.92
2019-05-26T17:13:32.330Z,2.35
2019-05-26T17:16:01.170Z,1.95
2019-05-26T17:18:31.538Z,1.62
2019-05-26T17:21:01.934Z,1.75
2019-05-26T17:23:32.319Z,2.40
2019-05-26T17:26:02.776Z,2.20
2019-05-26T17:28:33.150Z,2.00
2019-05-26T17:31:03.553Z,1.60
2019-05-26T17:33:33.938Z,1.80
2019-05-26T17:36:04.614Z,1.62
2019-05-26T17:38:34.995Z,2.00
2019-05-26T17:41:05.398Z,1.72
2019-05-26T17:43:35.771Z,1.85
2019-05-26T17:46:06.205Z,1.65
2019-05-26T17:48:36.565Z,1.80
2019-05-26T17:51:07.019Z,1.98
2019-05-26T17:53:37.387Z,2.10
2019-05-26T17:56:07.795Z,1.67
2019-05-26T17:58:38.169Z,1.82
2019-05-26T18:01:08.609Z,1.87
2019-05-26T18:03:39.049Z,1.55
2019-05-26T18:06:09.459Z,1.60
2019-05-26T18:08:39.832Z,1.70
2019-05-26T18:11:10.243Z,1.30
2019-05-26T18:13:40.613Z,1.60
2019-05-26T18:16:11.013Z,1.40
2019-05-26T18:18:41.392Z,1.30
2019-05-26T18:21:11.778Z,1.40
2019-05-26T18:23:42.142Z,1.50
2019-05-26T18:26:12.788Z,1.62
2019-05-26T18:28:43.429Z,1.15
2019-05-26T18:31:13.982Z,1.22
2019-05-26T18:33:44.348Z,1.52
2019-05-26T18:36:14.754Z,1.00
2019-05-26T18:38:45.124Z,1.10
2019-05-26T18:41:15.525Z,1.42
2019-05-26T18:43:45.980Z,1.20
2019-05-26T18:46:16.370Z,1.25
2019-05-26T18:48:46.768Z,1.45
2019-05-26T18:51:17.325Z,1.30
2019-05-26T18:53:47.704Z,1.52
2019-05-26T18:56:18.134Z,1.00
2019-05-26T18:58:48.472Z,1.22
2019-05-26T19:01:18.883Z,1.30
2019-05-26T19:03:49.263Z,1.30
2019-05-26T19:06:19.653Z,1.40
2019-05-26T19:08:50.044Z,1.47
2019-05-26T19:11:20.432Z,1.70
2019-05-26T19:13:50.802Z,1.60
2019-05-26T19:16:21.196Z,1.35
2019-05-26T19:18:51.629Z,1.60
2019-05-26T19:21:22.051Z,1.55
2019-05-26T19:23:52.407Z,1.90
2019-05-26T19:26:22.876Z,1.80
2019-05-26T19:28:53.316Z,1.40
2019-05-26T19:31:23.989Z,1.98
2019-05-26T19:33:54.379Z,1.52
2019-05-26T19:36:24.764Z,2.00
2019-05-26T19:38:55.135Z,1.57
2019-05-26T19:41:26.682Z,2.17
2019-05-26T19:43:57.049Z,1.60
2019-05-26T19:46:27.715Z,1.75
2019-05-26T19:48:58.193Z,2.20
2019-05-26T19:51:28.564Z,2.25
2019-05-26T19:53:58.964Z,2.02
2019-05-26T19:56:29.335Z,2.08
2019-05-26T19:59:00.065Z,1.85
2019-05-26T20:01:30.662Z,2.22
2019-05-26T20:04:02.141Z,2.10
2019-05-26T20:06:32.608Z,2.17
2019-05-26T20:09:03.155Z,2.10
2019-05-26T20:11:33.614Z,2.52
2019-05-26T20:14:04.237Z,2.30
2019-05-26T20:16:34.618Z,2.90
2019-05-26T20:19:05.155Z,2.65
2019-05-26T20:21:35.750Z,2.65
2019-05-26T20:24:06.284Z,2.60
2019-05-26T20:26:36.660Z,2.92
2019-05-26T20:29:07.049Z,3.37
2019-05-26T20:31:37.427Z,3.15
2019-05-26T20:34:07.821Z,3.58
2019-05-26T20:36:38.203Z,3.83
2019-05-26T20:39:10.004Z,3.58
2019-05-26T20:41:40.385Z,3.87
2019-05-26T20:44:10.858Z,4.42
2019-05-26T20:46:41.265Z,4.28
2019-05-26T20:49:11.633Z,4.28
2019-05-26T20:51:42.007Z,4.20
2019-05-26T20:54:12.409Z,4.60
2019-05-26T20:56:43.865Z,5.28
2019-05-26T20:59:14.243Z,4.28
2019-05-26T21:01:46.207Z,4.53
2019-05-26T21:04:16.651Z,5.62
2019-05-26T21:06:47.058Z,4.35
2019-05-26T21:09:17.444Z,4.25
2019-05-26T21:11:47.860Z,4.75
2019-05-26T21:14:19.285Z,4.08
2019-05-26T21:16:52.644Z,4.72
2019-05-26T21:19:23.025Z,4.60
2019-05-26T21:21:53.472Z,4.83
2019-05-26T21:24:23.843Z,5.05
2019-05-26T21:26:54.301Z,4.15
2019-05-26T21:29:24.677Z,4.37
2019-05-26T21:31:55.157Z,4.45
2019-05-26T21:34:25.528Z,3.72
2019-05-26T21:36:55.931Z,4.12
2019-05-26T21:39:26.292Z,4.28
2019-05-26T21:41:56.674Z,4.80
2019-05-26T21:44:27.070Z,4.30
2019-05-26T21:46:57.472Z,4.22
2019-05-26T21:49:27.825Z,3.72
2019-05-26T21:51:58.225Z,3.27
2019-05-26T21:54:28.615Z,3.70
2019-05-26T21:56:59.030Z,4.10
2019-05-26T21:59:29.403Z,3.70
2019-05-26T22:01:59.801Z,3.45
2019-05-26T22:04:30.173Z,3.67
2019-05-26T22:07:00.570Z,3.55
2019-05-26T22:09:30.940Z,4.00
2019-05-26T22:12:01.415Z,3.65
2019-05-26T22:14:31.794Z,3.70
2019-05-26T22:17:02.201Z,3.35
2019-05-26T22:19:32.571Z,3.15
2019-05-26T22:22:03.939Z,3.27
2019-05-26T22:24:34.335Z,2.65
2019-05-26T22:27:04.724Z,3.10
2019-05-26T22:29:35.108Z,2.42
2019-05-26T22:32:05.566Z,2.40
2019-05-26T22:34:36.243Z,2.80
2019-05-26T22:37:06.822Z,2.50
2019-05-26T22:39:37.189Z,2.17
2019-05-26T22:42:07.593Z,1.87
2019-05-26T22:44:37.972Z,2.20
2019-05-26T22:47:08.358Z,2.17
2019-05-26T22:49:38.734Z,2.30
2019-05-26T22:52:09.123Z,2.75
2019-05-26T22:54:39.492Z,2.40
2019-05-26T22:57:09.910Z,2.80
2019-05-26T22:59:40.273Z,2.58
2019-05-26T23:02:10.768Z,2.33
2019-05-26T23:04:41.129Z,2.77
2019-05-26T23:07:11.528Z,3.42
2019-05-26T23:09:41.918Z,3.05
2019-05-26T23:12:12.327Z,2.55
2019-05-26T23:14:42.724Z,3.20
2019-05-26T23:17:13.143Z,2.98
2019-05-26T23:19:43.520Z,2.52
2019-05-26T23:22:13.943Z,2.72
2019-05-26T23:24:45.393Z,2.83
2019-05-26T23:27:15.838Z,2.65
2019-05-26T23:29:46.202Z,2.35
2019-05-26T23:32:16.611Z,2.37
2019-05-26T23:34:47.963Z,2.55
2019-05-26T23:37:18.343Z,3.02
2019-05-26T23:39:48.730Z,2.83
2019-05-26T23:42:19.135Z,2.75
2019-05-26T23:44:49.492Z,2.72
2019-05-26T23:47:20.852Z,2.77
2019-05-26T23:49:51.991Z,3.17
2019-05-26T23:52:22.385Z,3.60
2019-05-26T23:54:52.764Z,3.37
2019-05-26T23:57:23.156Z,3.05
2019-05-26T23:59:53.529Z,3.45
